Air Resources Laboratory banner image
Air Resources Laboratory web site National Oceanic and Atmospheric Administration (NOAA)

id metar


KBOI 210153Z 36005KT 10SM CLR 34/M03 A2988 RMK AO2 SLP086 T03441033=
KBYI 210153Z AUTO 26006KT 10SM CLR 29/07 A2997 RMK AO2 SLP100 T02890072=
KCOE 210156Z AUTO 21007KT 10SM CLR 25/02 A2997 RMK AO2 SLP150 T02500022 PNO $=
KEUL 210156Z AUTO 33005KT 10SM CLR 34/06 A2986 RMK AO2 SLP087 T03390056=
KIDA 210153Z 18009KT 10SM CLR 31/05 A3000 RMK AO2 SLP111 T03110050=
KJER 210153Z AUTO 24004KT 10SM CLR 30/05 A2998 RMK AO2 SLP103 T03000050=
KLLJ 210155Z AUTO 26015G19KT 10SM CLR 33/M07 A2998 RMK AO2 SLP073 T03281067 $=
KLWS 210156Z 32010KT 10SM CLR 29/M01 A2994 RMK AO2 SLP129 T02891006=
KMLP 210153Z AUTO 00000KT 10SM CLR 16/M04 A3014 RMK AO2 SLP121 T01611044=
KMUO 210158Z AUTO 35015KT 10SM CLR 36/M04 A2988 RMK AO2 SLP086 T03571037 $=
KMYL 210151Z AUTO 29010KT 10SM CLR 27/M09 A3005 RMK AO2 SLP129 T02721089=
KP69 210152Z AUTO 00000KT 23/09 A2992 RMK AO1 SLP118 T02330089=
KPIH 210153Z 21007KT 10SM CLR 32/06 A2999 RMK AO2 SLP102 T03170056=
KRXE 210153Z AUTO 17009KT 10SM CLR 30/06 A3000 RMK AO2 SLP111 T03000061=
KSMN 210156Z AUTO 27010KT 10SM CLR 32/M03 A2988 RMK AO2 SLP079 T03221028 PNO $=
KSNT 210151Z AUTO 29004KT 27/M04 A3015 RMK AO1 SLP113 T02721044=
KSUN 210153Z 21009G15KT 10SM SKC 29/01 A3008=
KTWF 210153Z 00000KT 10SM CLR 29/11 A2998 RMK AO2 SLP092 T02940106=